Aérodrome :
LOGIN :

S'inscrire | Disclaimer

   EN    FR    IT 

 










Légende :    VFR   VFR Marginal   IFR   IFR Intensif   IFR Très Intensif
Visi : 
Plafond : 
>= 8 km
>= 3000ft
5 à 8 km
1000 à 3000 ft
1500m à 5 km
500 à 1000 ft
800 à 1500m
200 à 500 ft
< 800m
< 200 ft
Symboles :   Orages  Brouillard  Fortes neiges  Fortes précipitations  Vent > 20 kt
SIGMETs :   Divers  Orages  Givrage  Turbulence  Onde Orograph.  Cendres Volcan.






- Altitude de l'aérodrome : 20 ft


EBFN - Koksijde

DERNIER METAR :
  • 221455Z AUTO 28009KT 9999 OVC016/// 06/03 Q1036 WHT

METARs EXPIRÉS :
  • 221425Z AUTO 29010KT 9999 OVC016/// 06/03 Q1036 WHT
  • 221415Z AUTO 28011KT 9999 OVC016/// 06/03 Q1036 WHT
  • 221355Z AUTO 28010KT 9999 OVC014/// 06/03 Q1036 GRN
  • 221325Z AUTO 28008KT 9999 OVC012/// 06/04 Q1036 GRN
  • 221255Z AUTO 27008KT 9999 OVC010/// 06/04 Q1036 GRN
  • 221225Z AUTO 27010KT 9999 OVC010/// 06/04 Q1036 GRN

TAF TAF EBFN
Valide du 22 à 13h jusqu'au 22 à 22h UTC


221141Z 2213/2222 29007KT 8000 SCT008 OVC010
BECMG 2216/2218 32005KT FEW008 BKN010 OVC013
BECMG 2220/2222 VRB03KT 7000 FEW010 BKN015 OVC020 BY EBWM



MET'MAP, la Météo Aéronautique d'un coup d'oeil ! - Copyright ORBIFLY Décembre 2007 - Disclaimer

ORBIFLY MET'MAP TEAM :

Programmation & Développement : Alexandra Zaïnal
Sur une idée originale de : Baudouin d'Aumeries
Assistance à la programmation : Marc-Olivier Méhu
Soutien technique & logistique : Manuel Goepfert

Contact : metmap@orbifly.com




SOURCES & CREDITS :

   NOAA